createdAt,value
2017-03-21T00:00:00.579Z,97.69
2017-03-21T00:01:09.467Z,97.31
2017-03-21T00:02:18.355Z,97.79
2017-03-21T00:03:27.893Z,97.31
2017-03-21T00:04:38.087Z,96.84
2017-03-21T00:05:47.775Z,96.65
2017-03-21T00:06:57.317Z,96.36
2017-03-21T00:08:06.861Z,96.36
2017-03-21T00:09:16.449Z,95.41
2017-03-21T00:10:26.315Z,95.6
2017-03-21T00:11:35.414Z,96.55
2017-03-21T00:12:44.954Z,97.6
2017-03-21T00:13:54.503Z,97.31
2017-03-21T00:15:04.694Z,96.84
2017-03-21T00:16:13.904Z,97.31
2017-03-21T00:17:23.042Z,96.46
2017-03-21T00:18:32.260Z,96.55
2017-03-21T00:19:42.126Z,97.22
2017-03-21T00:20:51.664Z,97.03
2017-03-21T00:22:00.889Z,97.31
2017-03-21T00:23:10.869Z,97.13
2017-03-21T00:24:20.737Z,97.5
2017-03-21T00:25:30.607Z,97.31
2017-03-21T00:26:40.148Z,97.22
2017-03-21T00:27:49.037Z,97.41
2017-03-21T00:28:58.129Z,96.94
2017-03-21T00:30:07.342Z,96.46
2017-03-21T00:31:17.206Z,96.65
2017-03-21T00:32:26.421Z,97.31
2017-03-21T00:33:35.960Z,96.36
2017-03-21T00:34:45.653Z,96.84
2017-03-21T00:35:55.195Z,96.74
2017-03-21T00:37:04.412Z,96.46
2017-03-21T00:38:13.953Z,96.65
2017-03-21T00:39:23.826Z,96.08
2017-03-21T00:40:33.522Z,96.94
2017-03-21T00:41:42.744Z,95.6
2017-03-21T00:42:51.962Z,95.7
2017-03-21T00:44:02.156Z,96.46
2017-03-21T00:45:11.373Z,96.08
2017-03-21T00:46:20.691Z,96.26
2017-03-21T00:47:29.582Z,95.22
2017-03-21T00:48:38.807Z,96.46
2017-03-21T00:49:49.002Z,95.51
2017-03-21T00:50:58.547Z,95.41
2017-03-21T00:52:07.588Z,95.79
2017-03-21T00:53:16.814Z,95.6
2017-03-21T00:54:27.333Z,96.03
2017-03-21T00:55:37.199Z,95.36
2017-03-21T00:56:46.425Z,96.5
2017-03-21T00:57:55.742Z,96.22
2017-03-21T00:59:04.966Z,96.46
2017-03-21T01:00:15.155Z,96.22
2017-03-21T01:01:24.366Z,96.12
2017-03-21T01:02:33.580Z,95.84
2017-03-21T01:03:43.419Z,95.75
2017-03-21T01:04:52.961Z,96.22
2017-03-21T01:06:02.502Z,96.5
2017-03-21T01:07:11.393Z,96.22
2017-03-21T01:08:20.935Z,96.6
2017-03-21T01:09:30.277Z,95.17
2017-03-21T01:10:40.188Z,95.17
2017-03-21T01:11:49.127Z,95.17
2017-03-21T01:12:58.341Z,95.36
2017-03-21T01:14:08.213Z,95.36
2017-03-21T01:15:17.479Z,95.27
2017-03-21T01:16:26.364Z,96.5
2017-03-21T01:17:35.914Z,96.89
2017-03-21T01:18:45.471Z,97.17
2017-03-21T01:19:55.013Z,97.27
2017-03-21T01:21:05.034Z,97.45
2017-03-21T01:22:13.930Z,96.5
2017-03-21T01:23:23.190Z,97.08
2017-03-21T01:24:32.775Z,96.69
2017-03-21T01:25:41.993Z,96.79
2017-03-21T01:26:52.331Z,96.89
2017-03-21T01:28:01.234Z,97.83
2017-03-21T01:29:11.119Z,98.6
2017-03-21T01:30:20.664Z,98.5
2017-03-21T01:31:29.883Z,99.99
2017-03-21T01:32:39.188Z,99.99
2017-03-21T01:33:48.733Z,99.99
2017-03-21T01:34:57.619Z,99.99
2017-03-21T01:36:06.507Z,99.99
2017-03-21T01:37:15.397Z,99.99
2017-03-21T01:38:24.435Z,99.99
2017-03-21T01:39:33.974Z,99.99
2017-03-21T01:40:43.188Z,99.99
2017-03-21T01:41:52.404Z,99.99
2017-03-21T01:43:01.961Z,99.99
2017-03-21T01:44:11.014Z,99.99
2017-03-21T01:45:21.531Z,99.99
2017-03-21T01:46:30.743Z,99.99
2017-03-21T01:47:39.632Z,99.99
2017-03-21T01:48:49.181Z,99.99
2017-03-21T01:49:58.774Z,99.99
2017-03-21T01:51:07.989Z,99.99
2017-03-21T01:52:17.210Z,99.99
2017-03-21T01:53:27.403Z,99.99
2017-03-21T01:54:37.275Z,99.99
2017-03-21T01:55:46.215Z,99.99
2017-03-21T01:56:55.429Z,99.99
2017-03-21T01:58:04.323Z,99.99
2017-03-21T01:59:14.521Z,99.99
2017-03-21T02:00:24.385Z,99.99
2017-03-21T02:01:33.422Z,99.74
2017-03-21T02:02:42.637Z,99.84
2017-03-21T02:03:52.519Z,99.16
2017-03-21T02:05:01.737Z,99.99
2017-03-21T02:06:10.952Z,99.93
2017-03-21T02:07:20.355Z,99.93
2017-03-21T02:08:29.904Z,99.64
2017-03-21T02:09:39.772Z,99.74
2017-03-21T02:10:49.313Z,99.55
2017-03-21T02:11:58.526Z,99.74
2017-03-21T02:13:07.896Z,99.55
2017-03-21T02:14:17.762Z,99.99
2017-03-21T02:15:27.959Z,99.99
2017-03-21T02:16:37.176Z,99.74
2017-03-21T02:17:46.068Z,99.99
2017-03-21T02:18:56.090Z,99.99
2017-03-21T02:20:05.957Z,99.99
2017-03-21T02:21:15.540Z,99.74
2017-03-21T02:22:24.443Z,99.99
2017-03-21T02:23:33.662Z,99.99
2017-03-21T02:24:43.040Z,99.99
2017-03-21T02:25:52.911Z,99.99
2017-03-21T02:27:03.148Z,99.99
2017-03-21T02:28:12.695Z,99.99
2017-03-21T02:29:22.565Z,99.99
2017-03-21T02:30:32.108Z,99.99
2017-03-21T02:31:40.999Z,99.99
2017-03-21T02:32:50.543Z,99.99
2017-03-21T02:34:00.084Z,99.99
2017-03-21T02:35:09.302Z,99.99
2017-03-21T02:36:18.340Z,99.97
2017-03-21T02:37:27.558Z,99.99
2017-03-21T02:38:36.446Z,99.99
2017-03-21T02:39:46.642Z,99.99
2017-03-21T02:40:56.191Z,99.99
2017-03-21T02:42:05.129Z,99.99
2017-03-21T02:43:14.349Z,99.99
2017-03-21T02:44:24.222Z,99.99
2017-03-21T02:45:33.761Z,99.99
2017-03-21T02:46:43.010Z,99.99
2017-03-21T02:47:52.725Z,99.99
2017-03-21T02:49:02.263Z,99.99
2017-03-21T02:50:11.807Z,99.99
2017-03-21T02:51:21.031Z,99.99
2017-03-21T02:52:30.245Z,99.99
2017-03-21T02:53:40.109Z,99.99
2017-03-21T02:54:49.979Z,99.99
2017-03-21T02:56:00.173Z,99.99
2017-03-21T02:57:09.059Z,99.88
2017-03-21T02:58:18.282Z,99.99
2017-03-21T02:59:28.454Z,99.99
2017-03-21T03:00:38.320Z,99.78
2017-03-21T03:01:47.212Z,99.97
2017-03-21T03:02:56.099Z,99.99
2017-03-21T03:04:05.639Z,99.88
2017-03-21T03:05:15.006Z,99.99
2017-03-21T03:06:24.216Z,99.35
2017-03-21T03:07:33.103Z,99.88
2017-03-21T03:08:42.324Z,99.99
2017-03-21T03:09:51.871Z,99.83
2017-03-21T03:11:01.665Z,99.54
2017-03-21T03:12:11.204Z,99.64
2017-03-21T03:13:20.752Z,99.26
2017-03-21T03:14:30.948Z,99.44
2017-03-21T03:15:40.812Z,99.73
2017-03-21T03:16:50.432Z,99.54
2017-03-21T03:17:59.973Z,99.83
2017-03-21T03:19:10.167Z,99.64
2017-03-21T03:20:19.713Z,99.44
2017-03-21T03:21:29.254Z,99.07
2017-03-21T03:22:38.394Z,99.35
2017-03-21T03:23:48.587Z,99.35
2017-03-21T03:24:58.130Z,99.26
2017-03-21T03:26:07.019Z,99.16
2017-03-21T03:27:16.238Z,99.16
2017-03-21T03:28:25.929Z,99.26
2017-03-21T03:29:36.126Z,99.99
2017-03-21T03:30:45.341Z,99.99
2017-03-21T03:31:54.230Z,99.54
2017-03-21T03:33:03.450Z,99.35
2017-03-21T03:34:12.645Z,99.83
2017-03-21T03:35:22.841Z,99.44
2017-03-21T03:36:32.048Z,99.07
2017-03-21T03:37:41.263Z,98.5
2017-03-21T03:38:51.130Z,99.26
2017-03-21T03:40:01.049Z,98.88
2017-03-21T03:41:10.262Z,98.31
2017-03-21T03:42:19.477Z,98.69
2017-03-21T03:43:28.692Z,98.88
2017-03-21T03:44:38.885Z,98.59
2017-03-21T03:45:48.074Z,98.83
2017-03-21T03:46:57.292Z,98.31
2017-03-21T03:48:06.510Z,98.69
2017-03-21T03:49:16.059Z,98.4
2017-03-21T03:50:26.250Z,98.5
2017-03-21T03:51:35.514Z,99.16
2017-03-21T03:52:44.408Z,98.59
2017-03-21T03:53:54.606Z,99.07
2017-03-21T03:55:04.479Z,99.44
2017-03-21T03:56:13.696Z,98.88
2017-03-21T03:57:23.391Z,98.55
2017-03-21T03:58:33.257Z,98.5
2017-03-21T03:59:43.125Z,98.45
2017-03-21T04:00:52.990Z,99.11
2017-03-21T04:02:02.523Z,99.3
2017-03-21T04:03:11.463Z,99.4
2017-03-21T04:04:21.335Z,99.21
2017-03-21T04:05:30.876Z,98.55
2017-03-21T04:06:40.460Z,98.55
2017-03-21T04:07:50.330Z,99.11
2017-03-21T04:09:00.035Z,98.55
2017-03-21T04:10:09.573Z,99.21
2017-03-21T04:11:19.110Z,99.26
2017-03-21T04:12:28.324Z,99.35
2017-03-21T04:13:37.865Z,98.88
2017-03-21T04:14:47.238Z,98.88
2017-03-21T04:15:57.104Z,98.4
2017-03-21T04:17:06.320Z,99.35
2017-03-21T04:18:15.862Z,99.64
2017-03-21T04:19:25.413Z,99.35
2017-03-21T04:20:35.857Z,99.44
2017-03-21T04:21:45.397Z,98.31
2017-03-21T04:22:54.946Z,98.59
2017-03-21T04:24:05.135Z,98.21
2017-03-21T04:25:14.674Z,98.5
2017-03-21T04:26:23.887Z,98.97
2017-03-21T04:27:32.777Z,98.79
2017-03-21T04:28:42.327Z,98.5
2017-03-21T04:29:52.194Z,99.54
2017-03-21T04:31:02.056Z,99.07
2017-03-21T04:32:11.369Z,99.26
2017-03-21T04:33:20.257Z,99.35
2017-03-21T04:34:29.796Z,98.97
2017-03-21T04:35:39.009Z,98.88
2017-03-21T04:36:48.250Z,98.5
2017-03-21T04:37:57.565Z,98.79
2017-03-21T04:39:07.116Z,98.88
2017-03-21T04:40:16.979Z,98.79
2017-03-21T04:41:25.866Z,98.5
2017-03-21T04:42:34.758Z,98.69
2017-03-21T04:43:45.104Z,98.5
2017-03-21T04:44:54.973Z,98.45
2017-03-21T04:46:04.844Z,98.64
2017-03-21T04:47:14.055Z,98.35
2017-03-21T04:48:23.606Z,98.54
2017-03-21T04:49:32.823Z,98.16
2017-03-21T04:50:41.711Z,98.64
2017-03-21T04:51:50.600Z,98.16
2017-03-21T04:53:00.474Z,98.45
2017-03-21T04:54:10.020Z,98.35
2017-03-21T04:55:19.714Z,98.16
2017-03-21T04:56:28.601Z,98.35
2017-03-21T04:57:37.490Z,98.45
2017-03-21T04:58:47.366Z,98.45
2017-03-21T04:59:57.238Z,98.45
2017-03-21T05:01:06.782Z,98.45
2017-03-21T05:02:15.676Z,98.35
2017-03-21T05:03:24.575Z,98.16
2017-03-21T05:04:33.799Z,98.35
2017-03-21T05:05:42.688Z,97.88
2017-03-21T05:06:51.956Z,99.02
2017-03-21T05:08:01.182Z,97.69
2017-03-21T05:09:11.058Z,97.88
2017-03-21T05:10:20.936Z,98.26
2017-03-21T05:11:29.828Z,98.16
2017-03-21T05:12:39.050Z,97.69
2017-03-21T05:13:48.924Z,97.88
2017-03-21T05:14:59.125Z,98.16
2017-03-21T05:16:08.996Z,98.35
2017-03-21T05:17:17.887Z,97.78
2017-03-21T05:18:27.166Z,98.07
2017-03-21T05:19:36.714Z,97.78
2017-03-21T05:20:45.944Z,97.5
2017-03-21T05:21:54.830Z,97.78
2017-03-21T05:23:04.049Z,97.69
2017-03-21T05:24:13.317Z,97.88
2017-03-21T05:25:22.863Z,97.5
2017-03-21T05:26:32.730Z,97.69
2017-03-21T05:27:41.627Z,97.78
2017-03-21T05:28:51.834Z,97.22
2017-03-21T05:30:01.753Z,97.31
2017-03-21T05:31:10.641Z,97.02
2017-03-21T05:32:19.530Z,97.12
2017-03-21T05:33:29.078Z,97.12
2017-03-21T05:34:38.666Z,97.22
2017-03-21T05:35:47.707Z,97.02
2017-03-21T05:36:56.925Z,97.12
2017-03-21T05:38:06.467Z,96.93
2017-03-21T05:39:16.012Z,97.22
2017-03-21T05:40:25.557Z,96.93
2017-03-21T05:41:34.449Z,96.55
2017-03-21T05:42:43.664Z,96.83
2017-03-21T05:43:53.532Z,96.64
2017-03-21T05:45:03.408Z,96.26
2017-03-21T05:46:12.949Z,96.74
2017-03-21T05:47:21.914Z,97.22
2017-03-21T05:48:31.169Z,96.64
2017-03-21T05:49:41.040Z,96.64
2017-03-21T05:50:50.578Z,96.93
2017-03-21T05:51:59.798Z,96.55
2017-03-21T05:53:09.919Z,96.26
2017-03-21T05:54:19.463Z,96.74
2017-03-21T05:55:29.670Z,96.26
2017-03-21T05:56:38.884Z,96.26
2017-03-21T05:57:48.100Z,96.08
2017-03-21T05:58:57.468Z,96.64
2017-03-21T06:00:07.015Z,96.45
2017-03-21T06:01:16.556Z,96.45
2017-03-21T06:02:25.773Z,96.08
2017-03-21T06:03:34.666Z,96.17
2017-03-21T06:04:44.522Z,95.79
2017-03-21T06:05:54.382Z,96.26
2017-03-21T06:07:03.296Z,96.17
2017-03-21T06:08:12.516Z,96.26
2017-03-21T06:09:22.392Z,96.45
2017-03-21T06:10:31.707Z,95.79
2017-03-21T06:11:40.592Z,96.74
2017-03-21T06:12:49.809Z,96.08
2017-03-21T06:13:59.690Z,96.74
2017-03-21T06:15:09.231Z,96.36
2017-03-21T06:16:18.597Z,96.64
2017-03-21T06:17:27.808Z,96.55
2017-03-21T06:18:36.701Z,96.64
2017-03-21T06:19:46.245Z,96.26
2017-03-21T06:20:55.459Z,96.17
2017-03-21T06:22:04.600Z,96.45
2017-03-21T06:23:14.467Z,95.79
2017-03-21T06:24:24.021Z,95.79
2017-03-21T06:25:33.560Z,96.17
2017-03-21T06:26:43.097Z,96.17
2017-03-21T06:27:52.139Z,96.08
2017-03-21T06:29:02.016Z,95.7
2017-03-21T06:30:11.894Z,96.26
2017-03-21T06:31:21.109Z,96.55
2017-03-21T06:32:30.653Z,95.46
2017-03-21T06:33:40.295Z,97.07
2017-03-21T06:34:50.166Z,96.69
2017-03-21T06:36:00.053Z,96.5
2017-03-21T06:37:09.590Z,96.6
2017-03-21T06:38:18.816Z,96.31
2017-03-21T06:39:29.023Z,96.31
2017-03-21T06:40:38.243Z,96.5
2017-03-21T06:41:47.464Z,96.22
2017-03-21T06:42:56.679Z,96.31
2017-03-21T06:44:05.903Z,96.41
2017-03-21T06:45:16.073Z,96.69
2017-03-21T06:46:25.292Z,96.5
2017-03-21T06:47:34.182Z,96.31
2017-03-21T06:48:44.705Z,96.5
2017-03-21T06:49:54.580Z,96.31
2017-03-21T06:51:03.854Z,96.03
2017-03-21T06:52:13.076Z,96.41
2017-03-21T06:53:22.618Z,96.79
2017-03-21T06:54:32.846Z,96.41
2017-03-21T06:55:42.065Z,96.6
2017-03-21T06:56:51.431Z,96.79
2017-03-21T06:58:01.298Z,96.5
2017-03-21T06:59:11.168Z,97.27
2017-03-21T07:00:20.713Z,97.36
2017-03-21T07:01:29.939Z,96.93
2017-03-21T07:02:39.641Z,96.65
2017-03-21T07:03:49.196Z,96.84
2017-03-21T07:04:59.390Z,96.55
2017-03-21T07:06:08.934Z,97.31
2017-03-21T07:07:18.147Z,97.31
2017-03-21T07:08:27.613Z,96.45
2017-03-21T07:09:37.483Z,97.22
2017-03-21T07:10:47.026Z,97.03
2017-03-21T07:11:55.921Z,97.22
2017-03-21T07:13:05.461Z,97.22
2017-03-21T07:14:15.256Z,97.22
2017-03-21T07:15:25.125Z,98.17
2017-03-21T07:16:34.335Z,98.36
2017-03-21T07:17:43.228Z,99.11
2017-03-21T07:18:53.109Z,99.74
2017-03-21T07:20:03.391Z,99.99
2017-03-21T07:21:12.636Z,99.99
2017-03-21T07:22:21.530Z,99.93
2017-03-21T07:23:31.081Z,99.99
2017-03-21T07:24:40.307Z,99.93
2017-03-21T07:25:49.772Z,99.99
2017-03-21T07:26:58.990Z,99.99
2017-03-21T07:28:08.209Z,99.99
2017-03-21T07:29:17.426Z,99.99
2017-03-21T07:30:26.650Z,99.99
2017-03-21T07:31:36.251Z,99.99
2017-03-21T07:32:45.796Z,99.99
2017-03-21T07:33:55.014Z,99.99
2017-03-21T07:35:05.211Z,99.99
2017-03-21T07:36:14.758Z,99.99
2017-03-21T07:37:24.131Z,99.99
2017-03-21T07:38:33.359Z,99.99
2017-03-21T07:39:42.586Z,99.99
2017-03-21T07:40:51.473Z,99.99
2017-03-21T07:42:00.687Z,99.99
2017-03-21T07:43:10.389Z,99.99
2017-03-21T07:44:19.952Z,99.99
2017-03-21T07:45:29.849Z,99.99
2017-03-21T07:46:38.746Z,99.99
2017-03-21T07:47:47.974Z,99.99
2017-03-21T07:48:57.179Z,99.99
2017-03-21T07:50:07.059Z,99.99
2017-03-21T07:51:17.248Z,99.99
2017-03-21T07:52:26.481Z,99.99
2017-03-21T07:53:35.373Z,99.99
2017-03-21T07:54:45.720Z,99.99
2017-03-21T07:55:54.939Z,99.99
2017-03-21T07:57:04.159Z,99.99
2017-03-21T07:58:13.711Z,99.99
2017-03-21T07:59:23.921Z,99.99
2017-03-21T08:00:33.715Z,99.99
2017-03-21T08:01:42.933Z,99.99
2017-03-21T08:02:52.479Z,99.99
2017-03-21T08:04:01.704Z,99.99
2017-03-21T08:05:11.570Z,99.99
2017-03-21T08:06:21.164Z,99.99
2017-03-21T08:07:31.032Z,99.99
2017-03-21T08:08:39.928Z,99.99
2017-03-21T08:09:50.128Z,99.99
2017-03-21T08:10:59.684Z,99.99
2017-03-21T08:12:08.626Z,99.99
2017-03-21T08:13:17.846Z,99.99
2017-03-21T08:14:27.398Z,99.99
2017-03-21T08:15:36.947Z,99.99
2017-03-21T08:16:46.166Z,99.99
2017-03-21T08:17:55.756Z,99.99
2017-03-21T08:19:04.971Z,99.99
2017-03-21T08:20:14.195Z,99.99
2017-03-21T08:21:24.071Z,99.99
2017-03-21T08:22:33.288Z,99.99
2017-03-21T08:23:42.880Z,99.99
2017-03-21T08:24:52.768Z,99.99
2017-03-21T08:26:01.986Z,99.99
2017-03-21T08:27:11.208Z,99.99
2017-03-21T08:28:20.430Z,99.99
2017-03-21T08:29:30.456Z,99.99
2017-03-21T08:30:40.001Z,99.99
2017-03-21T08:31:48.894Z,99.99
2017-03-21T08:32:58.115Z,99.99
2017-03-21T08:34:07.334Z,99.99
2017-03-21T08:35:16.557Z,99.99
2017-03-21T08:36:25.446Z,99.99
2017-03-21T08:37:34.337Z,99.99
2017-03-21T08:38:43.224Z,99.99
2017-03-21T08:39:52.118Z,99.99
2017-03-21T08:41:01.166Z,99.99
2017-03-21T08:42:10.428Z,99.99
2017-03-21T08:43:19.661Z,99.99
2017-03-21T08:44:29.209Z,99.99
2017-03-21T08:45:38.119Z,99.99
2017-03-21T08:46:47.484Z,99.99
2017-03-21T08:47:56.381Z,99.99
2017-03-21T08:49:05.606Z,99.99
2017-03-21T08:50:14.503Z,99.99
2017-03-21T08:51:23.401Z,99.99
2017-03-21T08:52:32.344Z,99.99
2017-03-21T08:53:41.241Z,99.99
2017-03-21T08:54:50.782Z,99.99
2017-03-21T08:55:59.997Z,99.99
2017-03-21T08:57:09.551Z,99.99
2017-03-21T08:58:18.697Z,99.99
2017-03-21T08:59:28.245Z,99.99
2017-03-21T09:00:37.468Z,99.99
2017-03-21T09:01:46.362Z,99.99
2017-03-21T09:02:55.269Z,99.99
2017-03-21T09:04:04.166Z,99.99
2017-03-21T09:05:13.061Z,99.99
2017-03-21T09:06:22.281Z,99.99
2017-03-21T09:07:31.175Z,99.99
2017-03-21T09:08:40.105Z,99.99
2017-03-21T09:09:49.439Z,99.99
2017-03-21T09:10:58.336Z,99.99
2017-03-21T09:12:07.233Z,99.99
2017-03-21T09:13:16.128Z,99.99
2017-03-21T09:14:25.346Z,99.99
2017-03-21T09:15:34.350Z,99.99
2017-03-21T09:16:43.248Z,99.99
2017-03-21T09:17:52.466Z,99.99
2017-03-21T09:19:01.357Z,99.99
2017-03-21T09:20:11.222Z,99.99
2017-03-21T09:21:20.262Z,99.99
2017-03-21T09:22:29.158Z,99.99
2017-03-21T09:23:38.378Z,99.99
2017-03-21T09:24:47.269Z,99.99
2017-03-21T09:25:56.490Z,99.99
2017-03-21T09:27:05.587Z,99.99
2017-03-21T09:28:14.803Z,99.99
2017-03-21T09:29:23.705Z,99.99
2017-03-21T09:30:32.925Z,99.99
2017-03-21T09:31:42.154Z,99.99
2017-03-21T09:32:51.301Z,99.99
2017-03-21T09:34:00.859Z,99.99
2017-03-21T09:35:09.755Z,99.99
2017-03-21T09:36:18.652Z,99.99
2017-03-21T09:37:27.542Z,99.99
2017-03-21T09:38:36.763Z,99.99
2017-03-21T09:39:45.665Z,99.99
2017-03-21T09:40:55.533Z,99.99
2017-03-21T09:42:05.075Z,99.99
2017-03-21T09:43:13.969Z,99.99
2017-03-21T09:44:23.587Z,99.99
2017-03-21T09:45:32.475Z,99.84
2017-03-21T09:46:41.363Z,98.7
2017-03-21T09:47:50.584Z,98.6
2017-03-21T09:49:00.132Z,98.03
2017-03-21T09:50:09.176Z,98.13
2017-03-21T09:51:18.071Z,95.27
2017-03-21T09:52:26.970Z,92.32
2017-03-21T09:53:35.862Z,93.08
2017-03-21T09:54:45.403Z,92.6
2017-03-21T09:55:54.670Z,93.55
2017-03-21T09:57:04.213Z,91.74
2017-03-21T09:58:13.105Z,93.93
2017-03-21T09:59:54.369Z,94.98
2017-03-21T10:01:03.410Z,95.56
2017-03-21T10:02:12.301Z,97.89
2017-03-21T10:03:21.197Z,96.6
2017-03-21T10:04:30.093Z,95.7
2017-03-21T10:05:38.987Z,96.41
2017-03-21T10:06:48.029Z,96.41
2017-03-21T10:07:56.936Z,94.13
2017-03-21T10:09:06.157Z,94.84
2017-03-21T10:10:15.374Z,94.27
2017-03-21T10:11:24.589Z,95.41
2017-03-21T10:12:33.634Z,93.13
2017-03-21T10:13:42.521Z,91.22
2017-03-21T10:14:51.410Z,92.51
2017-03-21T10:16:00.304Z,90.51
2017-03-21T10:17:09.524Z,90.42
2017-03-21T10:18:18.577Z,90.56
2017-03-21T10:19:27.473Z,91.89
2017-03-21T10:20:36.377Z,91.51
2017-03-21T10:21:45.267Z,89.51
2017-03-21T10:22:54.161Z,89.41
2017-03-21T10:24:03.629Z,88.46
2017-03-21T10:25:13.170Z,88.27
2017-03-21T10:26:22.384Z,86.75
2017-03-21T10:27:31.276Z,90.17
2017-03-21T10:28:40.161Z,88.18
2017-03-21T10:29:49.477Z,87.07
2017-03-21T10:30:58.372Z,88.08
2017-03-21T10:32:07.261Z,87.41
2017-03-21T10:33:16.471Z,88.46
2017-03-21T10:34:25.696Z,88.65
2017-03-21T10:35:35.066Z,89.32
2017-03-21T10:36:44.284Z,88.08
2017-03-21T10:37:53.174Z,88.84
2017-03-21T10:39:02.061Z,89.65
2017-03-21T10:40:11.277Z,88.37
2017-03-21T10:41:20.325Z,88.79
2017-03-21T10:42:29.220Z,89.65
2017-03-21T10:43:38.112Z,88.7
2017-03-21T10:44:47.014Z,88.51
2017-03-21T10:45:56.230Z,86.41
2017-03-21T10:47:05.174Z,86.22
2017-03-21T10:48:14.071Z,85.93
2017-03-21T10:49:22.963Z,85.64
2017-03-21T10:50:31.855Z,84.5
2017-03-21T10:51:40.756Z,85.36
2017-03-21T10:52:49.798Z,82.6
2017-03-21T10:53:59.011Z,82.07
2017-03-21T10:55:08.555Z,82.31
2017-03-21T10:56:17.446Z,83.84
2017-03-21T10:57:26.342Z,82.6
2017-03-21T10:58:35.940Z,82.98
2017-03-21T10:59:45.158Z,82.89
2017-03-21T11:00:54.383Z,84.41
2017-03-21T11:02:03.597Z,86.98
2017-03-21T11:03:12.491Z,89.75
2017-03-21T11:04:21.860Z,92.98
2017-03-21T11:05:31.406Z,98.27
2017-03-21T11:06:40.629Z,99.99
2017-03-21T11:07:49.879Z,99.99
2017-03-21T11:08:59.417Z,99.99
2017-03-21T11:10:08.782Z,99.99
2017-03-21T11:11:17.676Z,99.99
2017-03-21T11:12:26.601Z,99.99
2017-03-21T11:13:35.819Z,99.99
2017-03-21T11:14:45.046Z,99.99
2017-03-21T11:15:54.189Z,99.99
2017-03-21T11:17:03.757Z,99.99
2017-03-21T11:18:12.975Z,99.99
2017-03-21T11:19:22.521Z,99.99
2017-03-21T11:20:31.409Z,99.99
2017-03-21T11:21:40.401Z,99.99
2017-03-21T11:22:49.616Z,99.99
2017-03-21T11:23:58.841Z,99.99
2017-03-21T11:25:08.059Z,99.99
2017-03-21T11:26:17.278Z,99.99
2017-03-21T11:27:26.420Z,99.99
2017-03-21T11:28:35.311Z,99.99
2017-03-21T11:29:44.202Z,99.99
2017-03-21T11:30:53.093Z,99.99
2017-03-21T11:32:01.987Z,99.99
2017-03-21T11:33:11.354Z,99.99
2017-03-21T11:34:21.223Z,99.99
2017-03-21T11:35:30.439Z,99.99
2017-03-21T11:36:39.338Z,99.99
2017-03-21T11:37:48.556Z,99.99
2017-03-21T11:38:57.550Z,99.99
2017-03-21T11:40:06.443Z,99.99
2017-03-21T11:41:15.336Z,99.99
2017-03-21T11:42:24.549Z,99.99
2017-03-21T11:43:33.437Z,99.99
2017-03-21T11:44:42.578Z,99.99
2017-03-21T11:45:51.481Z,99.99
2017-03-21T11:47:00.698Z,99.99
2017-03-21T11:48:09.910Z,99.99
2017-03-21T11:49:18.800Z,99.99
2017-03-21T11:50:27.838Z,99.99
2017-03-21T11:51:36.727Z,99.99
2017-03-21T11:52:46.594Z,99.99
2017-03-21T11:53:56.168Z,99.99
2017-03-21T11:55:05.393Z,99.99
2017-03-21T11:56:14.687Z,99.99
2017-03-21T11:57:23.574Z,99.99
2017-03-21T11:58:32.464Z,99.99
2017-03-21T11:59:41.683Z,99.99
2017-03-21T12:00:50.577Z,99.99
2017-03-21T12:01:59.622Z,99.99
2017-03-21T12:03:08.517Z,99.99
2017-03-21T12:04:17.406Z,99.99
2017-03-21T12:05:26.951Z,99.99
2017-03-21T12:06:36.166Z,99.99
2017-03-21T12:07:45.364Z,99.99
2017-03-21T12:08:54.914Z,99.99
2017-03-21T12:10:04.464Z,99.99
2017-03-21T12:11:13.679Z,99.99
2017-03-21T12:12:23.231Z,99.99
2017-03-21T12:13:32.229Z,99.99
2017-03-21T12:14:41.121Z,99.99
2017-03-21T12:15:50.014Z,99.99
2017-03-21T12:16:59.570Z,99.99
2017-03-21T12:18:08.476Z,99.99
2017-03-21T12:19:17.518Z,99.99
2017-03-21T12:20:27.076Z,99.99
2017-03-21T12:21:36.295Z,99.99
2017-03-21T12:22:45.195Z,99.99
2017-03-21T12:23:54.412Z,98.55
2017-03-21T12:25:03.455Z,98.55
2017-03-21T12:26:12.358Z,96.27
2017-03-21T12:27:21.259Z,94.84
2017-03-21T12:28:31.133Z,92.84
2017-03-21T12:29:41.014Z,92.27
2017-03-21T12:30:49.965Z,90.65
2017-03-21T12:31:58.866Z,90.7
2017-03-21T12:33:08.095Z,88.32
2017-03-21T12:34:17.320Z,87.08
2017-03-21T12:35:26.220Z,86.32
2017-03-21T12:36:35.361Z,84.52
2017-03-21T12:37:44.260Z,86.9
2017-03-21T12:38:54.466Z,84.56
2017-03-21T12:40:03.354Z,77.42
2017-03-21T12:41:12.575Z,73.99
2017-03-21T12:42:22.170Z,68.59
2017-03-21T12:43:31.394Z,68.88
2017-03-21T12:44:40.292Z,69.74
2017-03-21T12:45:49.188Z,69.07
2017-03-21T12:46:58.095Z,63.92
2017-03-21T12:48:07.618Z,63.64
2017-03-21T12:49:17.175Z,61.83
2017-03-21T12:50:27.051Z,59.35
2017-03-21T12:51:35.949Z,59.26
2017-03-21T12:52:45.166Z,58.21
2017-03-21T12:53:54.212Z,59.06
2017-03-21T12:55:03.111Z,58.78
2017-03-21T12:56:12.009Z,61.73
2017-03-21T12:57:20.906Z,60.69
2017-03-21T12:58:29.802Z,61.45
2017-03-21T12:59:38.844Z,62.88
2017-03-21T13:00:47.735Z,62.78
2017-03-21T13:01:56.634Z,63.57
2017-03-21T13:03:05.870Z,64.34
2017-03-21T13:04:15.106Z,63.39
2017-03-21T13:05:24.410Z,62.05
2017-03-21T13:06:33.637Z,60.81
2017-03-21T13:07:43.193Z,63.39
2017-03-21T13:08:52.428Z,64.05
2017-03-21T13:10:01.332Z,64.28
2017-03-21T13:11:10.609Z,62.37
2017-03-21T13:12:19.829Z,63.32
2017-03-21T13:13:29.051Z,65.42
2017-03-21T13:14:37.958Z,63.7
2017-03-21T13:15:47.509Z,63.6
2017-03-21T13:16:56.513Z,66.28
2017-03-21T13:18:05.747Z,67.52
2017-03-21T13:19:14.662Z,65.42
2017-03-21T13:20:24.520Z,66.94
2017-03-21T13:21:33.421Z,67.58
2017-03-21T13:22:42.443Z,64.62
2017-03-21T13:23:51.344Z,65.86
2017-03-21T13:25:00.571Z,64.34
2017-03-21T13:26:09.504Z,65.77
2017-03-21T13:27:18.420Z,66.44
2017-03-21T13:28:27.794Z,68.91
2017-03-21T13:29:36.695Z,71.07
2017-03-21T13:30:46.261Z,70.21
2017-03-21T13:31:55.193Z,69.54
2017-03-21T13:33:04.091Z,67.55
2017-03-21T13:34:13.369Z,67.45
2017-03-21T13:35:22.264Z,69.64
2017-03-21T13:36:31.160Z,65.07
2017-03-21T13:37:40.391Z,64.78
2017-03-21T13:38:49.623Z,66.21
2017-03-21T13:39:59.619Z,61.73
2017-03-21T13:41:08.524Z,61.35
2017-03-21T13:42:17.745Z,59.74
2017-03-21T13:43:26.658Z,61.16
2017-03-21T13:44:35.909Z,61.83
2017-03-21T13:45:45.059Z,59.74
2017-03-21T13:46:53.990Z,57.64
2017-03-21T13:48:04.018Z,57.26
2017-03-21T13:49:12.949Z,58.59
2017-03-21T13:50:21.849Z,61.25
2017-03-21T13:51:30.743Z,57.92
2017-03-21T13:52:40.341Z,56.59
2017-03-21T13:53:50.233Z,56.11
2017-03-21T13:54:59.461Z,56.46
2017-03-21T13:56:08.365Z,57.8
2017-03-21T13:57:17.584Z,56.49
2017-03-21T13:58:26.802Z,53.92
2017-03-21T13:59:36.035Z,53.25
2017-03-21T14:00:44.929Z,51.73
2017-03-21T14:01:54.164Z,50.49
2017-03-21T14:03:03.387Z,50.23
2017-03-21T14:04:12.955Z,48.49
2017-03-21T14:05:22.555Z,48.8
2017-03-21T14:06:31.590Z,49.37
2017-03-21T14:07:40.491Z,50.71
2017-03-21T14:08:50.047Z,50.61
2017-03-21T14:09:59.278Z,50.16
2017-03-21T14:11:08.181Z,50.71
2017-03-21T14:12:17.410Z,52.8
2017-03-21T14:13:26.645Z,52.9
2017-03-21T14:14:35.556Z,53.41
2017-03-21T14:15:45.102Z,53.59
2017-03-21T14:16:54.479Z,54.26
2017-03-21T14:18:03.379Z,53.12
2017-03-21T14:19:12.604Z,52.73
2017-03-21T14:20:21.826Z,53.5
2017-03-21T14:21:30.730Z,51.21
2017-03-21T14:22:39.883Z,49.87
2017-03-21T14:23:49.116Z,48.94
2017-03-21T14:24:58.021Z,49.04
2017-03-21T14:26:06.920Z,49.52
2017-03-21T14:27:15.822Z,50.57
2017-03-21T14:28:25.200Z,52.67
2017-03-21T14:29:35.085Z,51.74
2017-03-21T14:30:43.987Z,50.21
2017-03-21T14:31:52.890Z,50.18
2017-03-21T14:33:01.795Z,50.76
2017-03-21T14:34:10.950Z,50.28
2017-03-21T14:35:19.848Z,49.99
2017-03-21T14:36:28.751Z,48.92
2017-03-21T14:37:37.976Z,49.11
2017-03-21T14:38:47.201Z,48.73
2017-03-21T14:39:56.807Z,47.87
2017-03-21T14:41:05.711Z,49.02
2017-03-21T14:42:15.589Z,49.3
2017-03-21T14:43:24.822Z,49.04
2017-03-21T14:44:33.729Z,49.87
2017-03-21T14:45:43.020Z,50.16
2017-03-21T14:46:52.247Z,49.87
2017-03-21T14:48:01.471Z,50.76
2017-03-21T14:49:11.036Z,47.8
2017-03-21T14:50:20.607Z,49.3
2017-03-21T14:51:29.766Z,48.44
2017-03-21T14:52:38.674Z,47.87
2017-03-21T14:53:48.561Z,48.92
2017-03-21T14:54:58.443Z,47.97